Time;durP1;ratioP1;P1;durP2;ratioP2;P2;SDS_P1;SDS_P2;PMS_P1;PMS_P2;Temp;Humidity;BMP_temperature;BMP_pressure;BME280_temperature;BME280_humidity;BME280_pressure;Samples;Min_cycle;Max_cycle;Signal;HPM_P1;HPM_P2
2023/09/28 00:02:52;;;;;;;5.60;2.92;;;;;;;13.94;65.42;99958.88;10300096;28;20050;-60
2023/09/28 00:07:55;;;;;;;4.63;2.58;;;;;;;13.92;65.69;99955.53;10300348;28;20050;-60
2023/09/28 00:12:57;;;;;;;4.22;2.40;;;;;;;13.88;65.76;99947.97;10299150;28;20491;-60
2023/09/28 00:17:59;;;;;;;7.68;3.33;;;;;;;13.86;66.00;99948.06;10289039;28;20347;-60
2023/09/28 00:23:04;;;;;;;4.60;2.42;;;;;;;13.84;66.15;99968.34;10285388;28;20140;-60
2023/09/28 00:28:06;;;;;;;4.95;2.95;;;;;;;14.05;66.05;99979.09;10290091;28;20512;-60
2023/09/28 00:33:08;;;;;;;5.28;3.03;;;;;;;14.05;65.53;99961.53;10273210;28;20120;-60
2023/09/28 00:38:11;;;;;;;6.45;3.78;;;;;;;13.89;65.87;99961.00;10303622;28;20046;-60
2023/09/28 00:43:13;;;;;;;6.72;3.60;;;;;;;13.85;65.79;99949.03;10258712;28;20046;-60
2023/09/28 00:48:15;;;;;;;4.70;2.78;;;;;;;13.94;65.81;99961.50;10261884;28;20053;-60
2023/09/28 00:53:20;;;;;;;6.82;3.60;;;;;;;13.99;65.67;99969.03;10293175;28;20203;-60
2023/09/28 00:58:24;;;;;;;7.65;3.63;;;;;;;14.03;65.45;99967.84;10281770;28;20085;-60
2023/09/28 01:03:27;;;;;;;5.88;3.15;;;;;;;13.87;66.08;99955.00;10290185;28;20046;-60
2023/09/28 01:08:29;;;;;;;4.78;2.90;;;;;;;13.85;66.30;99945.53;10287155;28;20366;-60
2023/09/28 01:13:33;;;;;;;5.32;2.60;;;;;;;13.98;66.04;99949.81;10254642;28;20082;-60
2023/09/28 01:18:36;;;;;;;5.10;2.90;;;;;;;13.99;66.40;99945.38;10272062;28;20052;-61
2023/09/28 01:23:39;;;;;;;5.18;2.45;;;;;;;14.17;65.95;99944.84;10290531;28;20433;-60
2023/09/28 01:28:41;;;;;;;4.57;2.65;;;;;;;14.27;65.79;99951.09;10291552;28;20042;-60
2023/09/28 01:33:43;;;;;;;7.80;2.75;;;;;;;14.36;65.61;99963.59;10290308;28;20516;-60
2023/09/28 01:38:55;;;;;;;7.45;2.85;;;;;;;14.42;65.36;99968.38;10307441;28;20034;-60
2023/09/28 01:43:57;;;;;;;5.20;3.00;;;;;;;14.41;65.28;99948.28;10289077;28;20043;-60
2023/09/28 01:49:00;;;;;;;4.82;2.72;;;;;;;14.30;65.27;99934.25;10293418;28;20043;-60
2023/09/28 01:54:02;;;;;;;10.52;3.40;;;;;;;14.14;65.56;99953.00;10296120;28;20050;-60
2023/09/28 01:59:04;;;;;;;4.13;2.38;;;;;;;14.26;65.80;99959.97;10292402;28;20039;-60
2023/09/28 02:04:06;;;;;;;5.35;2.25;;;;;;;14.39;65.64;99959.91;10269191;28;20501;-60
2023/09/28 02:09:10;;;;;;;5.90;3.00;;;;;;;14.26;65.61;99972.28;10317819;28;20360;-60
2023/09/28 02:14:12;;;;;;;4.35;2.40;;;;;;;14.19;65.77;99969.25;10302355;28;20054;-60
2023/09/28 02:19:15;;;;;;;4.28;2.33;;;;;;;14.34;65.74;99964.66;10281555;28;20389;-60
2023/09/28 02:24:17;;;;;;;5.93;2.80;;;;;;;14.30;65.58;99971.09;10302934;28;20316;-60
2023/09/28 02:29:22;;;;;;;5.18;2.67;;;;;;;14.25;65.35;99971.44;10285189;28;20091;-60
2023/09/28 02:34:24;;;;;;;6.60;2.60;;;;;;;14.17;65.58;99976.41;10302791;28;20405;-60
2023/09/28 02:39:28;;;;;;;4.72;2.45;;;;;;;14.23;65.82;99970.69;10301964;28;20172;-60
2023/09/28 02:44:30;;;;;;;4.18;2.50;;;;;;;14.35;65.33;99975.06;10268590;28;20417;-60
2023/09/28 02:49:32;;;;;;;4.40;2.15;;;;;;;14.41;65.14;99974.59;10292105;28;20125;-60
2023/09/28 02:54:34;;;;;;;5.18;2.40;;;;;;;14.22;65.19;99971.66;10290922;28;20154;-59
2023/09/28 02:59:39;;;;;;;7.25;3.15;;;;;;;14.10;65.75;99974.38;10309111;28;20534;-60
2023/09/28 03:04:41;;;;;;;4.72;2.38;;;;;;;14.07;65.74;99985.09;10306706;28;20138;-60
2023/09/28 03:09:43;;;;;;;8.13;2.50;;;;;;;14.08;65.78;99987.63;10301706;28;20046;-60
2023/09/28 03:14:45;;;;;;;4.00;2.20;;;;;;;14.02;66.18;99982.81;10284768;28;20351;-60
2023/09/28 03:19:47;;;;;;;6.47;2.60;;;;;;;14.04;66.22;99986.19;10256566;28;20450;-60
2023/09/28 03:24:49;;;;;;;4.20;2.42;;;;;;;13.89;66.37;99992.53;10222589;28;20144;-60
2023/09/28 03:29:52;;;;;;;4.18;2.33;;;;;;;13.77;66.50;99988.16;10250622;28;20228;-60
2023/09/28 03:34:54;;;;;;;8.25;2.78;;;;;;;13.68;66.70;99989.66;10222528;28;20411;-60
2023/09/28 03:39:58;;;;;;;4.68;2.65;;;;;;;13.63;67.07;99980.44;10223434;28;20158;-60
2023/09/28 03:45:00;;;;;;;5.05;2.60;;;;;;;13.62;67.08;99990.09;10222392;28;20059;-60
2023/09/28 03:50:03;;;;;;;5.43;2.60;;;;;;;13.62;66.89;100000.59;10221746;28;20047;-60
2023/09/28 03:55:10;;;;;;;5.20;2.60;;;;;;;13.66;66.84;99991.56;10218281;28;20078;-60
2023/09/28 04:00:14;;;;;;;5.57;2.45;;;;;;;13.69;66.78;100003.66;10219420;28;20486;-60
2023/09/28 04:05:17;;;;;;;6.25;2.22;;;;;;;13.62;66.71;100008.50;10219535;28;20058;-60
2023/09/28 04:10:20;;;;;;;6.40;2.15;;;;;;;13.56;66.54;99997.56;10218552;28;20047;-60
2023/09/28 04:15:25;;;;;;;4.13;2.42;;;;;;;13.47;66.48;100011.38;10219560;28;20055;-60
2023/09/28 04:20:27;;;;;;;4.50;2.53;;;;;;;13.37;66.80;100013.75;10222325;28;20426;-60
2023/09/28 04:25:29;;;;;;;4.82;2.35;;;;;;;13.38;66.98;100007.56;10298235;28;20045;-60
2023/09/28 04:30:31;;;;;;;6.55;2.67;;;;;;;13.31;66.83;100008.09;10300850;28;20073;-60
2023/09/28 04:35:33;;;;;;;5.60;2.63;;;;;;;13.30;66.90;100009.03;10302384;28;20517;-60
2023/09/28 04:40:36;;;;;;;4.15;2.40;;;;;;;13.25;66.44;100008.53;10303278;28;20043;-60
2023/09/28 04:45:38;;;;;;;5.40;2.63;;;;;;;13.21;66.49;100014.94;10318746;28;20489;-60
2023/09/28 04:50:40;;;;;;;4.53;2.55;;;;;;;13.24;66.64;100025.22;10264884;28;20099;-60
2023/09/28 04:55:43;;;;;;;5.10;2.85;;;;;;;13.21;66.44;100025.44;10301383;28;20280;-60
2023/09/28 05:00:45;;;;;;;4.32;2.70;;;;;;;13.21;66.58;100039.41;10299646;28;20047;-60
2023/09/28 05:05:47;;;;;;;4.93;3.00;;;;;;;13.22;66.67;100041.09;10281116;28;20042;-60
2023/09/28 05:10:50;;;;;;;5.90;2.88;;;;;;;13.24;66.63;100041.84;10297338;28;20046;-60
2023/09/28 05:15:52;;;;;;;6.00;2.80;;;;;;;13.24;66.77;100036.59;10278750;28;20210;-61
2023/09/28 05:20:57;;;;;;;4.50;2.80;;;;;;;13.12;66.95;100029.53;10266639;28;20376;-61
2023/09/28 05:26:00;;;;;;;5.38;2.67;;;;;;;13.12;66.83;100031.31;10296121;28;20046;-60
2023/09/28 05:31:03;;;;;;;5.13;2.55;;;;;;;13.16;66.82;100035.41;10296876;28;20136;-60
2023/09/28 05:36:06;;;;;;;5.50;2.95;;;;;;;13.17;67.01;100039.75;10298359;28;20050;-61
2023/09/28 05:41:08;;;;;;;5.22;2.75;;;;;;;13.23;66.70;100039.31;10278099;28;20054;-61
2023/09/28 05:46:10;;;;;;;5.20;2.85;;;;;;;13.23;66.68;100052.44;10280752;28;20065;-60
2023/09/28 05:51:12;;;;;;;7.22;2.80;;;;;;;13.29;66.66;100054.66;10298246;28;20050;-61
2023/09/28 05:56:14;;;;;;;5.15;2.63;;;;;;;13.43;66.29;100050.13;10281648;28;20050;-61
2023/09/28 06:01:17;;;;;;;4.38;2.80;;;;;;;13.50;66.22;100058.44;10295879;28;20046;-61
2023/09/28 06:06:22;;;;;;;4.85;2.75;;;;;;;13.51;66.21;100071.50;10296211;28;20051;-61
2023/09/28 06:11:25;;;;;;;4.85;2.88;;;;;;;13.63;65.80;100075.03;10288607;28;20038;-61
2023/09/28 06:16:28;;;;;;;4.57;3.00;;;;;;;13.61;66.09;100067.28;10291949;28;20054;-61
2023/09/28 06:21:30;;;;;;;6.88;3.25;;;;;;;13.71;65.83;100060.41;10295085;28;20049;-61
2023/09/28 06:26:33;;;;;;;7.07;3.30;;;;;;;13.72;65.47;100061.22;10290293;28;20461;-61
2023/09/28 06:31:44;;;;;;;4.60;2.70;;;;;;;13.55;65.76;100066.84;10295328;28;20645;-61
2023/09/28 06:36:46;;;;;;;4.85;2.78;;;;;;;13.73;65.75;100083.97;10297217;28;20050;-62
2023/09/28 06:41:48;;;;;;;4.70;2.65;;;;;;;13.81;65.49;100079.00;10277694;28;20519;-62
2023/09/28 06:46:59;;;;;;;5.28;2.83;;;;;;;13.92;65.79;100080.88;10263885;28;20485;-62
2023/09/28 06:52:01;;;;;;;4.03;2.30;;;;;;;14.02;65.56;100095.91;10295329;28;20491;-62
2023/09/28 06:57:03;;;;;;;4.40;2.70;;;;;;;14.16;65.54;100106.28;10292416;28;20051;-62
2023/09/28 07:02:05;;;;;;;6.78;3.00;;;;;;;14.26;65.40;100102.03;10293237;28;20421;-62
2023/09/28 07:07:10;;;;;;;4.50;2.63;;;;;;;14.43;65.19;100106.06;10280192;28;20052;-62
2023/09/28 07:12:12;;;;;;;4.68;2.35;;;;;;;14.43;65.39;100127.13;10296612;28;20164;-62
2023/09/28 07:17:14;;;;;;;3.90;2.33;;;;;;;14.57;65.37;100133.06;10297450;28;20046;-62
2023/09/28 07:22:16;;;;;;;4.90;2.88;;;;;;;14.76;64.76;100122.03;10298189;28;20053;-62
2023/09/28 07:27:19;;;;;;;8.23;3.20;;;;;;;14.94;64.50;100099.59;10297977;28;20041;-62
2023/09/28 07:32:20;;;;;;;6.38;3.20;;;;;;;15.05;65.04;100115.44;10300291;28;20501;-62
2023/09/28 07:37:24;;;;;;;5.40;3.15;;;;;;;15.63;64.56;100116.31;10290103;28;20141;-62
2023/09/28 07:42:26;;;;;;;5.82;3.40;;;;;;;16.26;63.30;100110.38;10286910;28;20838;-62
2023/09/28 07:47:28;;;;;;;6.82;3.45;;;;;;;16.62;62.49;100112.72;10302497;28;20570;-62
2023/09/28 07:52:31;;;;;;;5.30;3.00;;;;;;;16.92;62.26;100129.50;10304084;28;20058;-62
2023/09/28 07:57:33;;;;;;;7.47;3.30;;;;;;;17.42;61.21;100121.81;10302992;28;20058;-62
2023/09/28 08:02:55;;;;;;;6.53;3.40;;;;;;;17.83;60.41;100125.22;10303042;28;20042;-62
2023/09/28 08:07:57;;;;;;;6.63;3.60;;;;;;;18.20;59.75;100130.00;10269649;28;20077;-62
2023/09/28 08:13:15;;;;;;;5.35;3.03;;;;;;;18.51;59.08;100128.94;10304194;28;20141;-62
2023/09/28 08:18:17;;;;;;;8.15;3.08;;;;;;;18.97;58.59;100117.69;10301857;28;20077;-62
2023/09/28 08:23:22;;;;;;;5.65;2.97;;;;;;;19.44;57.69;100117.63;10286115;28;20141;-62
2023/09/28 08:28:25;;;;;;;7.05;3.42;;;;;;;19.78;56.88;100120.63;10303445;28;20046;-62
2023/09/28 08:33:27;;;;;;;7.30;3.72;;;;;;;19.95;56.64;100127.81;10271526;28;20054;-62
2023/09/28 08:38:29;;;;;;;7.15;3.40;;;;;;;19.72;56.21;100128.31;10303957;28;20056;-62
2023/09/28 08:43:49;;;;;;;5.85;3.40;;;;;;;19.59;55.75;100135.75;10303185;28;20057;-62
2023/09/28 08:48:56;;;;;;;7.22;3.38;;;;;;;19.67;55.79;100144.66;10286319;28;20413;-62
2023/09/28 08:54:05;;;;;;;6.97;3.25;;;;;;;19.97;54.80;100143.63;10284446;28;20206;-62
2023/09/28 08:59:09;;;;;;;6.22;3.17;;;;;;;20.18;55.18;100118.50;10301602;28;20061;-62
2023/09/28 09:04:11;;;;;;;8.05;3.90;;;;;;;20.33;54.74;100124.16;10303144;28;20068;-62
2023/09/28 09:09:18;;;;;;;5.05;3.20;;;;;;;20.21;55.13;100128.81;10283751;28;20166;-62
2023/09/28 09:14:25;;;;;;;6.13;3.17;;;;;;;20.40;55.13;100132.34;10301722;28;20054;-62
2023/09/28 09:19:31;;;;;;;6.88;3.20;;;;;;;20.71;54.20;100131.03;10301024;28;20042;-62
2023/09/28 09:24:33;;;;;;;7.10;3.38;;;;;;;20.95;54.31;100123.28;10300066;28;20127;-62
2023/09/28 09:29:36;;;;;;;5.57;3.65;;;;;;;20.97;53.80;100118.66;10299446;28;20138;-62
2023/09/28 09:34:39;;;;;;;5.93;3.13;;;;;;;21.19;53.81;100112.88;10301748;28;20537;-62
2023/09/28 09:39:41;;;;;;;4.55;2.78;;;;;;;21.32;53.56;100115.13;10300599;28;20137;-62
2023/09/28 09:44:48;;;;;;;6.70;3.08;;;;;;;21.39;52.74;100113.53;10300095;28;20579;-62
2023/09/28 09:49:53;;;;;;;5.43;2.90;;;;;;;21.58;52.91;100129.28;10314720;28;20180;-62
2023/09/28 09:54:55;;;;;;;4.55;2.70;;;;;;;21.96;52.52;100131.50;10300019;28;20046;-62
2023/09/28 09:59:58;;;;;;;12.65;3.33;;;;;;;22.44;51.64;100114.88;10300478;28;20108;-62
2023/09/28 10:05:03;;;;;;;5.40;3.03;;;;;;;22.36;51.74;100099.72;10299224;28;20057;-63
2023/09/28 10:10:07;;;;;;;6.00;2.50;;;;;;;22.36;51.53;100105.03;10299407;28;20053;-62
2023/09/28 10:15:10;;;;;;;5.05;2.05;;;;;;;22.47;51.15;100104.75;10300065;28;20176;-61
2023/09/28 10:20:14;;;;;;;5.55;2.20;;;;;;;22.82;50.96;100105.47;10298797;28;20050;-61
2023/09/28 10:25:17;;;;;;;14.02;3.05;;;;;;;23.07;50.23;100096.47;10299202;28;20057;-61
2023/09/28 10:30:22;;;;;;;3.97;2.38;;;;;;;23.10;50.23;100104.16;10281644;28;20058;-62
2023/09/28 10:35:28;;;;;;;4.68;2.00;;;;;;;23.29;50.13;100101.13;10300775;28;20051;-62
2023/09/28 10:40:33;;;;;;;6.60;2.40;;;;;;;23.23;49.14;100101.78;10299140;28;20644;-62
2023/09/28 10:45:51;;;;;;;3.40;1.92;;;;;;;23.36;49.82;100102.13;10298401;28;20053;-62
2023/09/28 10:50:53;;;;;;;4.32;1.88;;;;;;;23.21;49.45;100101.97;10298757;28;20448;-62
2023/09/28 10:55:55;;;;;;;3.13;1.90;;;;;;;23.22;49.72;100100.13;10294283;28;20047;-62
2023/09/28 11:00:57;;;;;;;4.25;2.10;;;;;;;23.40;49.55;100104.31;10277597;28;20125;-62
2023/09/28 11:06:04;;;;;;;5.07;2.35;;;;;;;23.50;48.46;100090.78;10289639;28;20039;-62
2023/09/28 11:11:06;;;;;;;4.80;1.95;;;;;;;23.73;48.42;100088.22;10267154;28;20194;-62
2023/09/28 11:16:09;;;;;;;3.85;2.03;;;;;;;23.99;48.67;100072.75;10279902;28;20137;-62
2023/09/28 11:21:12;;;;;;;5.53;1.90;;;;;;;24.17;48.37;100074.19;10300465;28;20058;-62
2023/09/28 11:26:14;;;;;;;4.07;2.20;;;;;;;24.13;48.53;100062.19;10300262;28;20498;-62
2023/09/28 11:31:16;;;;;;;3.13;1.80;;;;;;;24.25;48.05;100070.63;10300983;28;20058;-62
2023/09/28 11:36:21;;;;;;;2.88;1.70;;;;;;;24.39;47.56;100061.84;10301605;28;20061;-62
2023/09/28 11:41:24;;;;;;;4.30;1.85;;;;;;;24.45;47.72;100063.81;10301542;28;20051;-62
2023/09/28 11:46:31;;;;;;;2.75;1.55;;;;;;;24.46;45.82;100062.00;10304621;28;20408;-62
2023/09/28 11:51:34;;;;;;;4.25;1.90;;;;;;;24.55;47.19;100051.06;10283876;28;20135;-62
2023/09/28 11:56:36;;;;;;;7.13;2.05;;;;;;;24.43;46.83;100047.13;10301807;28;20062;-62
2023/09/28 12:01:39;;;;;;;2.47;1.50;;;;;;;24.64;46.63;100038.47;10295635;28;20498;-62
2023/09/28 12:06:43;;;;;;;3.80;1.55;;;;;;;24.80;46.83;100033.00;10296369;28;20050;-62
2023/09/28 12:11:46;;;;;;;4.47;1.83;;;;;;;24.80;46.43;100024.97;10300504;28;20701;-62
2023/09/28 12:16:48;;;;;;;6.00;1.90;;;;;;;24.91;46.32;100016.53;10295790;28;20053;-62
2023/09/28 12:21:53;;;;;;;3.80;1.77;;;;;;;24.84;45.81;100013.75;10297460;28;20050;-62
2023/09/28 12:26:56;;;;;;;4.53;1.55;;;;;;;25.12;45.67;100000.63;10297918;28;20191;-62
2023/09/28 12:31:58;;;;;;;3.63;1.55;;;;;;;25.36;45.26;99997.69;10297291;28;20042;-62
2023/09/28 12:37:00;;;;;;;3.47;1.70;;;;;;;25.57;45.12;99995.09;10294508;28;20132;-62
2023/09/28 12:42:02;;;;;;;2.35;1.40;;;;;;;25.57;45.17;99997.75;10298647;28;20058;-62
2023/09/28 12:56:34;;;;;;;4.25;1.63;;;;;;;24.61;47.17;99991.50;10501119;27;20187;-61
2023/09/28 13:01:36;;;;;;;3.33;1.60;;;;;;;25.16;46.15;99987.69;10503828;28;20245;-62
2023/09/28 13:06:39;;;;;;;5.18;1.55;;;;;;;25.49;45.47;99991.69;10515194;28;20130;-61
2023/09/28 13:11:45;;;;;;;2.55;1.50;;;;;;;25.57;45.28;99983.56;10500596;28;20127;-61
2023/09/28 13:16:58;;;;;;;3.05;1.67;;;;;;;25.79;44.69;99982.59;10527256;27;20716;-61
2023/09/28 13:22:00;;;;;;;3.40;1.80;;;;;;;25.95;44.96;99979.69;10500423;28;20059;-61
2023/09/28 13:27:05;;;;;;;2.97;1.60;;;;;;;26.13;44.59;99973.94;10502716;28;20139;-61
2023/09/28 13:45:14;;;;;;;2.60;1.60;;;;;;;25.80;44.46;99968.16;10539574;27;20182;-61
2023/09/28 13:50:16;;;;;;;2.50;1.42;;;;;;;26.20;44.16;99953.38;10497938;28;20071;-62
2023/09/28 13:55:20;;;;;;;2.97;1.63;;;;;;;26.41;43.96;99948.00;10494951;28;20095;-61
2023/09/28 14:05:30;;;;;;;4.13;2.00;;;;;;;26.35;43.75;99959.50;10491434;28;20162;-62
2023/09/28 14:10:33;;;;;;;3.85;1.83;;;;;;;26.29;44.04;99955.75;10496107;28;20055;-62
2023/09/28 14:15:36;;;;;;;5.03;1.92;;;;;;;26.33;44.20;99951.66;10501103;28;20155;-62
2023/09/28 14:20:39;;;;;;;6.97;2.60;;;;;;;26.24;43.54;99941.25;10479509;28;20052;-62
2023/09/28 14:25:41;;;;;;;12.55;3.63;;;;;;;26.18;44.21;99955.44;10496980;28;20052;-62
2023/09/28 14:30:44;;;;;;;12.50;4.45;;;;;;;26.21;44.65;99955.03;10501335;28;20052;-62
2023/09/28 14:35:46;;;;;;;4.35;1.90;;;;;;;26.31;45.87;99963.59;10494525;28;20044;-62
2023/09/28 14:40:48;;;;;;;8.70;2.70;;;;;;;26.25;45.02;99950.94;10496017;28;20127;-61
2023/09/28 14:45:50;;;;;;;3.75;1.60;;;;;;;26.13;45.09;99953.31;10495067;28;20575;-62
2023/09/28 14:50:52;;;;;;;4.22;1.95;;;;;;;26.12;44.65;99950.84;10476970;28;20066;-62
2023/09/28 14:55:54;;;;;;;17.33;3.63;;;;;;;25.86;44.92;99943.28;10473912;28;20040;-62
2023/09/28 15:00:56;;;;;;;10.50;3.30;;;;;;;25.56;45.94;99947.06;10469807;28;20198;-62
2023/09/28 15:06:00;;;;;;;4.20;1.77;;;;;;;25.35;46.01;99936.28;10461802;28;20083;-62
2023/09/28 15:11:03;;;;;;;2.78;1.75;;;;;;;25.17;46.15;99928.59;10467955;28;20416;-62
2023/09/28 15:16:06;;;;;;;7.65;1.95;;;;;;;25.03;46.72;99924.94;10464047;28;20512;-62
2023/09/28 15:21:14;;;;;;;4.00;1.80;;;;;;;25.04;46.65;99939.94;10467932;28;20082;-62
2023/09/28 15:26:16;;;;;;;8.13;2.00;;;;;;;25.07;47.09;99939.59;10456539;28;20048;-61
2023/09/28 15:31:18;;;;;;;6.75;2.42;;;;;;;25.09;47.59;99940.25;10459030;28;20067;-62
2023/09/28 15:36:21;;;;;;;7.00;2.00;;;;;;;25.04;48.92;99934.59;10464596;28;20044;-62
2023/09/28 15:41:36;;;;;;;4.93;1.50;;;;;;;24.96;49.89;99931.19;10463122;28;20056;-62
2023/09/28 15:46:39;;;;;;;3.47;2.10;;;;;;;24.98;49.58;99932.66;10460347;28;20056;-63
2023/09/28 15:51:42;;;;;;;5.22;1.70;;;;;;;25.01;49.83;99923.44;10462474;28;20036;-62
2023/09/28 15:56:44;;;;;;;3.22;1.58;;;;;;;24.97;50.30;99930.19;10446459;28;20094;-62
2023/09/28 16:01:47;;;;;;;4.53;1.75;;;;;;;24.84;50.69;99921.94;10467657;28;20059;-62
2023/09/28 16:06:50;;;;;;;10.07;2.55;;;;;;;24.59;51.19;99924.00;10442718;28;20052;-61
2023/09/28 16:11:52;;;;;;;4.63;1.70;;;;;;;24.34;51.44;99917.22;10448896;28;20036;-61
2023/09/28 16:16:54;;;;;;;2.60;1.42;;;;;;;24.16;51.63;99917.50;10463959;28;20050;-61
2023/09/28 16:21:56;;;;;;;4.03;1.77;;;;;;;24.00;52.17;99914.13;10467330;28;20048;-62
2023/09/28 16:26:59;;;;;;;4.03;2.03;;;;;;;23.82;52.56;99919.72;10466271;28;20311;-61
2023/09/28 16:32:02;;;;;;;4.13;1.80;;;;;;;23.58;53.41;99927.88;10464955;28;20144;-62
2023/09/28 16:37:04;;;;;;;3.58;1.60;;;;;;;23.33;54.27;99929.00;10477904;28;20045;-62
2023/09/28 16:42:06;;;;;;;5.18;1.70;;;;;;;23.06;54.71;99938.25;10466554;28;20482;-63
2023/09/28 16:47:08;;;;;;;6.85;1.73;;;;;;;22.95;54.73;99941.28;10462497;28;20059;-62
2023/09/28 16:52:11;;;;;;;6.60;1.98;;;;;;;22.79;55.12;99943.13;10465531;28;20040;-61
2023/09/28 16:57:14;;;;;;;3.78;2.00;;;;;;;22.58;55.24;99948.97;10463797;28;20040;-62
2023/09/28 17:02:16;;;;;;;5.18;1.92;;;;;;;22.40;55.33;99949.16;10462172;28;20055;-62
2023/09/28 17:07:19;;;;;;;5.72;1.70;;;;;;;22.20;55.59;99949.63;10463002;28;20121;-62
2023/09/28 17:12:21;;;;;;;5.25;2.30;;;;;;;21.90;56.09;99948.41;10464509;28;20535;-62
2023/09/28 17:17:43;;;;;;;7.25;3.63;;;;;;;21.73;56.19;99952.84;10443814;28;20051;-62
2023/09/28 17:22:45;;;;;;;10.20;2.42;;;;;;;21.47;56.58;99968.06;10467907;28;20282;-62
2023/09/28 17:27:48;;;;;;;3.80;2.00;;;;;;;21.35;56.78;99963.19;10432582;28;20124;-62
2023/09/28 17:32:50;;;;;;;5.55;2.78;;;;;;;21.26;57.39;99969.41;10462418;28;20206;-62
2023/09/28 17:37:52;;;;;;;3.70;2.00;;;;;;;20.97;58.33;99980.38;10460662;28;20367;-62
2023/09/28 17:42:54;;;;;;;5.05;1.90;;;;;;;20.74;58.71;99981.91;10465493;28;20226;-62
2023/09/28 17:47:56;;;;;;;3.80;2.17;;;;;;;20.61;59.26;99977.00;10441072;28;20055;-62
2023/09/28 17:52:58;;;;;;;3.85;1.73;;;;;;;20.47;59.42;99977.50;10463226;28;20094;-62
2023/09/28 17:58:00;;;;;;;5.30;2.08;;;;;;;20.35;59.55;99988.53;10460428;28;20471;-62
2023/09/28 18:03:03;;;;;;;4.47;1.80;;;;;;;20.32;59.41;99997.63;10461755;28;20139;-61
2023/09/28 18:08:07;;;;;;;5.78;2.00;;;;;;;20.24;59.90;100002.84;10440647;28;20048;-61
2023/09/28 18:13:09;;;;;;;3.58;1.88;;;;;;;20.13;60.16;100014.53;10459622;28;20131;-61
2023/09/28 18:18:11;;;;;;;3.83;1.83;;;;;;;20.01;60.42;100015.72;10458298;28;20045;-60
2023/09/28 18:23:14;;;;;;;3.00;1.70;;;;;;;19.88;60.85;100031.19;10461828;28;20323;-61
2023/09/28 18:28:16;;;;;;;3.65;2.00;;;;;;;19.76;61.31;100040.31;10461658;28;20409;-61
2023/09/28 18:33:18;;;;;;;3.90;2.08;;;;;;;19.65;61.47;100037.84;10475951;28;20114;-61
2023/09/28 18:38:20;;;;;;;4.55;2.35;;;;;;;19.54;61.66;100042.50;10450348;28;20147;-61
2023/09/28 18:43:23;;;;;;;3.70;1.90;;;;;;;19.50;62.02;100044.63;10469704;28;20063;-60
2023/09/28 18:48:25;;;;;;;2.78;1.70;;;;;;;19.48;62.03;100045.75;10471268;28;20072;-60
2023/09/28 18:53:27;;;;;;;3.10;1.80;;;;;;;19.34;62.57;100047.03;10475594;28;20730;-61
2023/09/28 18:58:29;;;;;;;3.15;1.90;;;;;;;19.23;62.51;100053.34;10474833;28;20983;-61
2023/09/28 19:03:32;;;;;;;3.63;1.92;;;;;;;19.19;62.69;100059.94;10475823;28;20907;-61
2023/09/28 19:08:35;;;;;;;4.35;1.83;;;;;;;18.97;63.17;100049.59;10484538;28;20037;-61
2023/09/28 19:13:38;;;;;;;3.88;1.70;;;;;;;18.88;63.78;100050.44;10469974;28;20386;-61
2023/09/28 19:18:40;;;;;;;6.47;2.80;;;;;;;18.94;63.30;100038.44;10472016;28;20046;-61
2023/09/28 19:23:42;;;;;;;6.70;2.10;;;;;;;18.89;63.28;100049.47;10449367;28;20074;-61
2023/09/28 19:28:44;;;;;;;4.60;1.83;;;;;;;18.81;63.63;100046.69;10470669;28;20037;-61
2023/09/28 19:33:46;;;;;;;4.28;2.00;;;;;;;18.82;63.48;100053.66;10458355;28;20047;-62
2023/09/28 19:38:48;;;;;;;3.35;1.75;;;;;;;18.87;63.66;100064.66;10479637;28;20146;-61
2023/09/28 19:43:50;;;;;;;3.83;1.90;;;;;;;18.94;63.77;100070.25;10440405;28;20060;-61
2023/09/28 19:48:52;;;;;;;3.08;1.83;;;;;;;18.97;63.65;100064.69;10476611;28;20738;-61
2023/09/28 19:53:54;;;;;;;3.20;2.00;;;;;;;18.95;63.33;100070.09;10470368;28;20044;-61
2023/09/28 19:58:57;;;;;;;5.78;1.83;;;;;;;18.82;63.75;100077.53;10464644;28;20044;-61
2023/09/28 20:03:59;;;;;;;3.60;1.98;;;;;;;18.86;63.51;100081.56;10464779;28;20864;-61
2023/09/28 20:09:03;;;;;;;6.10;2.08;;;;;;;18.75;63.64;100079.03;10454982;28;20036;-61
2023/09/28 20:14:05;;;;;;;4.43;2.13;;;;;;;18.64;64.30;100068.59;10449080;28;20076;-61
2023/09/28 20:19:07;;;;;;;5.18;2.50;;;;;;;18.69;64.31;100076.13;10460394;28;20580;-61
2023/09/28 20:24:09;;;;;;;5.00;2.05;;;;;;;18.74;64.09;100073.88;10464071;28;20064;-61
2023/09/28 20:29:12;;;;;;;4.03;1.80;;;;;;;18.71;64.15;100068.88;10442148;28;20041;-61
2023/09/28 20:34:14;;;;;;;4.75;1.80;;;;;;;18.67;64.13;100061.19;10447622;28;20520;-61
2023/09/28 20:39:17;;;;;;;3.65;2.22;;;;;;;18.67;64.07;100070.13;10469279;28;20113;-61
2023/09/28 20:44:19;;;;;;;3.10;2.00;;;;;;;18.61;64.00;100071.50;10464265;28;20071;-61
2023/09/28 20:49:21;;;;;;;3.17;1.70;;;;;;;18.56;64.26;100077.22;10466104;28;20441;-61
2023/09/28 20:54:23;;;;;;;5.43;1.90;;;;;;;18.48;64.31;100076.25;10453037;28;20044;-61
2023/09/28 20:59:25;;;;;;;5.97;2.00;;;;;;;18.38;64.49;100075.41;10462573;28;20047;-61
2023/09/28 21:04:27;;;;;;;3.58;1.77;;;;;;;18.35;64.54;100073.03;10471795;28;20048;-61
2023/09/28 21:09:29;;;;;;;4.03;1.90;;;;;;;18.37;64.28;100076.38;10468933;28;20213;-61
2023/09/28 21:14:31;;;;;;;6.80;2.55;;;;;;;18.25;64.27;100066.88;10452559;28;20044;-61
2023/09/28 21:19:33;;;;;;;3.28;1.90;;;;;;;18.09;64.54;100072.69;10420129;28;20063;-61
2023/09/28 21:24:36;;;;;;;5.70;2.33;;;;;;;18.12;64.96;100079.50;10478212;28;20047;-61
2023/09/28 21:29:38;;;;;;;3.53;1.80;;;;;;;18.19;64.80;100081.50;10469186;28;20052;-61
2023/09/28 21:34:40;;;;;;;3.65;1.90;;;;;;;18.21;64.87;100091.97;10471746;28;20427;-61
2023/09/28 21:39:42;;;;;;;3.20;2.00;;;;;;;18.23;64.64;100077.63;10466256;28;20052;-61
2023/09/28 21:44:44;;;;;;;5.65;2.38;;;;;;;18.05;64.64;100081.88;10465639;28;20491;-61
2023/09/28 21:49:46;;;;;;;6.45;2.30;;;;;;;17.71;64.91;100081.31;10452583;28;20044;-60
2023/09/28 21:54:48;;;;;;;4.13;1.90;;;;;;;17.60;65.17;100072.66;10468519;28;20141;-61
2023/09/28 21:59:50;;;;;;;4.20;2.40;;;;;;;17.45;65.61;100074.81;10473728;28;20127;-61
2023/09/28 22:04:53;;;;;;;6.22;2.08;;;;;;;17.44;65.86;100065.22;10469522;28;20299;-61
2023/09/28 22:09:55;;;;;;;4.38;1.80;;;;;;;17.41;65.64;100075.19;10453164;28;20337;-61
2023/09/28 22:14:57;;;;;;;3.35;2.10;;;;;;;17.31;65.67;100068.97;10480397;28;20042;-61
2023/09/28 22:20:04;;;;;;;3.47;1.92;;;;;;;17.27;66.09;100063.13;10476851;28;20040;-61
2023/09/28 22:25:06;;;;;;;2.85;1.92;;;;;;;17.22;66.08;100062.66;10457033;28;20416;-61
2023/09/28 22:30:09;;;;;;;4.15;2.05;;;;;;;17.10;65.92;100054.97;10472338;28;20098;-61
2023/09/28 22:35:12;;;;;;;6.15;2.58;;;;;;;16.75;66.58;100052.66;10472140;28;20402;-61
2023/09/28 22:40:14;;;;;;;3.83;2.40;;;;;;;16.81;66.53;100052.13;10460204;28;20079;-60
2023/09/28 22:45:29;;;;;;;3.67;2.00;;;;;;;16.73;66.54;100049.28;10453550;28;20075;-61
2023/09/28 22:50:33;;;;;;;3.55;2.20;;;;;;;16.62;67.20;100062.53;10473198;28;20222;-61
2023/09/28 22:55:35;;;;;;;6.10;2.00;;;;;;;16.33;67.59;100064.03;10460666;28;20044;-60
2023/09/28 23:00:37;;;;;;;3.72;1.98;;;;;;;16.21;67.94;100064.09;10471739;28;20440;-60
2023/09/28 23:05:39;;;;;;;4.53;2.10;;;;;;;16.39;67.68;100074.09;10474136;28;20126;-60
2023/09/28 23:10:41;;;;;;;3.95;1.90;;;;;;;16.32;67.20;100070.28;10476137;28;20037;-61
2023/09/28 23:15:44;;;;;;;4.40;2.17;;;;;;;16.38;67.49;100067.16;10469933;28;20531;-60
2023/09/28 23:20:46;;;;;;;3.35;1.90;;;;;;;16.45;67.25;100065.72;10473054;28;20094;-60
2023/09/28 23:25:48;;;;;;;3.88;1.90;;;;;;;16.31;67.22;100074.72;10435509;28;20053;-61
2023/09/28 23:30:50;;;;;;;6.97;2.38;;;;;;;16.36;67.30;100080.50;10470852;28;20048;-61
2023/09/28 23:35:58;;;;;;;5.35;2.40;;;;;;;16.35;67.13;100077.94;10487927;28;20159;-60
2023/09/28 23:41:00;;;;;;;6.38;2.70;;;;;;;16.33;67.10;100077.22;10470790;28;20079;-61
2023/09/28 23:46:02;;;;;;;4.00;2.22;;;;;;;16.25;67.30;100077.88;10472622;28;20080;-61